Time;durP1;ratioP1;P1;durP2;ratioP2;P2;SDS_P1;SDS_P2;PMS_P1;PMS_P2;Temp;Humidity;BMP_temperature;BMP_pressure;BME280_temperature;BME280_humidity;BME280_pressure;Samples;Min_cycle;Max_cycle;Signal;HPM_P1;HPM_P2
2022/07/11 00:00:09;;;;;;;2.20;0.72;;;;;;;18.78;77.50;99510.63;1675889;84;21045;-71
2022/07/11 00:02:41;;;;;;;1.42;1.32;;;;;;;18.78;77.17;99519.23;1663345;84;21112;-69
2022/07/11 00:05:09;;;;;;;0.80;0.78;;;;;;;18.75;77.01;99519.78;1675674;84;21063;-71
2022/07/11 00:07:36;;;;;;;1.55;0.68;;;;;;;18.70;76.64;99512.45;1670029;84;21150;-70
2022/07/11 00:10:04;;;;;;;1.07;0.70;;;;;;;18.63;77.02;99518.09;1677605;84;21548;-72
2022/07/11 00:12:31;;;;;;;2.05;0.50;;;;;;;18.61;76.90;99508.62;1672360;84;20982;-71
2022/07/11 00:14:57;;;;;;;0.65;0.50;;;;;;;18.58;76.83;99517.26;1667059;84;21565;-72
2022/07/11 00:17:25;;;;;;;0.50;0.50;;;;;;;18.56;76.63;99516.70;1657911;84;21068;-71
2022/07/11 00:19:51;;;;;;;;;;;;;;;18.55;76.63;99521.81;1668512;84;21057;-73
2022/07/11 00:22:20;;;;;;;0.75;0.62;;;;;;;18.54;76.73;99525.06;1669073;84;20183;-70
2022/07/11 00:24:46;;;;;;;1.17;0.37;;;;;;;18.45;77.10;99520.67;1670195;84;21537;-71
2022/07/11 00:27:14;;;;;;;1.80;0.50;;;;;;;18.47;77.06;99516.38;1672720;84;21129;-71
2022/07/11 00:29:41;;;;;;;0.40;0.40;;;;;;;18.48;77.26;99511.27;1664430;84;21049;-70
2022/07/11 00:32:07;;;;;;;;;;;;;;;18.48;76.77;99509.92;1658259;84;21025;-70
2022/07/11 00:34:35;;;;;;;1.20;1.20;;;;;;;18.42;76.65;99506.89;1669981;84;20117;-69
2022/07/11 00:37:01;;;;;;;1.90;0.60;;;;;;;18.29;77.26;99502.78;1676700;84;21093;-69
2022/07/11 00:39:28;;;;;;;1.32;0.57;;;;;;;18.26;77.42;99507.34;1672100;84;21018;-72
2022/07/11 00:41:54;;;;;;;0.98;0.53;;;;;;;18.23;77.52;99497.06;1672753;84;21073;-71
2022/07/11 00:44:20;;;;;;;;;;;;;;;18.19;77.88;99508.90;1671259;84;21841;-74
2022/07/11 00:46:46;;;;;;;1.60;0.72;;;;;;;18.20;77.84;99502.98;1669430;84;20176;-73
2022/07/11 00:49:12;;;;;;;;;;;;;;;18.14;78.00;99506.70;1665785;84;21072;-70
2022/07/11 00:51:39;;;;;;;0.87;0.50;;;;;;;18.13;78.23;99506.44;1668687;84;20148;-70
2022/07/11 00:54:06;;;;;;;;;;;;;;;18.07;78.65;99496.95;1677489;84;21070;-73
2022/07/11 00:56:33;;;;;;;0.42;0.42;;;;;;;18.06;78.67;99498.55;1674781;84;20168;-69
2022/07/11 00:59:01;;;;;;;0.60;0.60;;;;;;;18.00;79.29;99496.35;1674496;84;21053;-70
2022/07/11 01:01:27;;;;;;;0.68;0.60;;;;;;;18.02;79.03;99495.56;1668231;84;21627;-69
2022/07/11 01:03:53;;;;;;;0.78;0.62;;;;;;;18.01;78.92;99499.34;1673587;84;21057;-70
2022/07/11 01:06:19;;;;;;;0.90;0.45;;;;;;;18.00;79.18;99504.44;1666370;84;21136;-69
2022/07/11 01:08:45;;;;;;;;;;;;;;;17.99;79.02;99500.65;1669888;84;21080;-71
2022/07/11 01:11:16;;;;;;;0.30;0.30;;;;;;;18.00;79.29;99501.75;1671354;84;20150;-70
2022/07/11 01:13:44;;;;;;;4.12;0.57;;;;;;;17.98;79.44;99500.39;1661949;84;21647;-70
2022/07/11 01:16:16;;;;;;;0.53;0.50;;;;;;;18.02;79.50;99502.30;1671642;84;21076;-70
2022/07/11 01:18:48;;;;;;;2.95;0.40;;;;;;;18.02;79.26;99496.91;1672849;84;21034;-70
2022/07/11 01:21:39;;;;;;;0.82;0.57;;;;;;;18.04;79.00;99497.45;1666421;85;20981;-71
2022/07/11 01:24:07;;;;;;;0.82;0.45;;;;;;;18.05;79.14;99499.09;1662438;84;20977;-69
2022/07/11 01:26:34;;;;;;;0.47;0.40;;;;;;;18.05;79.02;99484.27;1647066;86;21071;-69
2022/07/11 01:29:09;;;;;;;1.80;0.30;;;;;;;18.03;78.89;99481.56;1670655;84;21080;-70
2022/07/11 01:31:42;;;;;;;0.45;0.30;;;;;;;18.02;78.92;99482.63;1662546;84;21521;-69
2022/07/11 01:34:12;;;;;;;0.88;0.20;;;;;;;18.00;78.60;99483.41;1662306;84;20974;-70
2022/07/11 01:36:39;;;;;;;1.85;0.40;;;;;;;17.99;78.80;99488.00;1653908;84;21520;-70
2022/07/11 01:39:06;;;;;;;2.37;0.53;;;;;;;17.97;78.67;99469.09;1669605;84;21032;-69
2022/07/11 01:41:33;;;;;;;0.65;0.33;;;;;;;17.92;79.15;99475.81;1661361;84;21071;-69
2022/07/11 01:44:00;;;;;;;0.72;0.40;;;;;;;17.90;79.00;99481.46;1672446;84;21497;-70
2022/07/11 01:46:26;;;;;;;0.82;0.40;;;;;;;17.88;79.43;99490.34;1667308;83;21507;-70
2022/07/11 01:48:52;;;;;;;0.33;0.33;;;;;;;17.90;79.36;99485.50;1675455;84;21018;-70
2022/07/11 01:51:18;;;;;;;;;;;;;;;17.93;79.17;99481.47;1676682;84;21102;-74
2022/07/11 01:53:45;;;;;;;0.62;0.62;;;;;;;17.92;79.31;99483.36;1656947;84;20166;-71
2022/07/11 01:56:12;;;;;;;0.93;0.40;;;;;;;17.86;79.63;99476.31;1670222;84;20961;-70
2022/07/11 01:58:38;;;;;;;1.00;0.37;;;;;;;17.85;79.83;99474.67;1677248;84;21182;-72
2022/07/11 02:01:04;;;;;;;1.20;0.25;;;;;;;17.86;80.12;99475.77;1669584;84;21024;-71
2022/07/11 02:03:31;;;;;;;1.22;0.20;;;;;;;17.88;79.81;99474.17;1667998;84;21089;-71
2022/07/11 02:05:57;;;;;;;0.40;0.30;;;;;;;17.87;79.92;99473.33;1661633;84;21485;-69
2022/07/11 02:08:24;;;;;;;0.47;0.40;;;;;;;17.88;80.23;99468.23;1670692;84;21081;-70
2022/07/11 02:10:52;;;;;;;0.40;0.40;;;;;;;17.87;80.64;99467.14;1672488;84;21018;-70
2022/07/11 02:13:22;;;;;;;0.65;0.50;;;;;;;17.84;81.06;99471.17;1669565;84;20990;-70
2022/07/11 02:15:51;;;;;;;0.55;0.25;;;;;;;17.84;81.37;99470.33;1645905;86;21064;-70
2022/07/11 02:18:18;;;;;;;0.57;0.20;;;;;;;17.84;81.58;99477.91;1669625;84;21110;-70
2022/07/11 02:20:46;;;;;;;1.35;0.40;;;;;;;17.84;81.78;99471.69;1659293;85;20984;-69
2022/07/11 02:23:12;;;;;;;0.45;0.40;;;;;;;17.88;82.07;99470.92;1639977;85;21025;-70
2022/07/11 02:25:40;;;;;;;0.60;0.40;;;;;;;17.90;82.23;99476.06;1668250;85;21568;-68
2022/07/11 02:28:08;;;;;;;1.90;0.33;;;;;;;17.92;82.75;99474.47;1665765;85;21013;-68
2022/07/11 02:30:35;;;;;;;0.37;0.35;;;;;;;17.92;82.96;99471.77;1664018;85;21032;-69
2022/07/11 02:33:03;;;;;;;2.98;0.70;;;;;;;17.92;83.17;99474.47;1666044;85;21313;-69
2022/07/11 02:35:30;;;;;;;1.65;0.47;;;;;;;17.94;83.46;99480.41;1683789;84;21019;-70
2022/07/11 02:37:57;;;;;;;1.32;0.55;;;;;;;17.97;83.21;99483.41;1686910;83;21066;-70
2022/07/11 02:40:23;;;;;;;;;;;;;;;18.00;82.76;99482.87;1666318;85;21080;-70
2022/07/11 02:42:49;;;;;;;0.50;0.40;;;;;;;17.99;82.65;99478.56;1642873;86;20162;-70
2022/07/11 02:45:15;;;;;;;0.45;0.30;;;;;;;17.96;82.76;99475.57;1662602;85;21028;-69
2022/07/11 02:47:42;;;;;;;0.72;0.70;;;;;;;17.98;83.01;99472.88;1633026;86;21128;-70
2022/07/11 02:50:11;;;;;;;1.15;0.20;;;;;;;18.02;83.03;99467.25;1635962;86;21054;-72
2022/07/11 02:52:39;;;;;;;0.90;0.53;;;;;;;18.05;82.93;99471.33;1678901;83;21454;-70
2022/07/11 02:55:10;;;;;;;0.65;0.45;;;;;;;18.05;83.26;99454.61;1681559;84;21002;-72
2022/07/11 02:57:39;;;;;;;2.08;0.20;;;;;;;18.11;83.66;99461.39;1675133;84;21121;-71
2022/07/11 03:00:13;;;;;;;0.45;0.33;;;;;;;18.15;83.83;99468.69;1671778;84;20994;-70
2022/07/11 03:02:41;;;;;;;0.93;0.40;;;;;;;18.16;83.61;99462.23;1648424;85;21125;-69
2022/07/11 03:05:08;;;;;;;1.15;0.40;;;;;;;18.15;83.30;99462.49;1673530;84;21014;-70
2022/07/11 03:07:35;;;;;;;0.40;0.30;;;;;;;18.16;83.38;99473.03;1666359;85;21010;-70
2022/07/11 03:10:02;;;;;;;0.55;0.40;;;;;;;18.21;83.51;99470.34;1657527;85;21044;-71
2022/07/11 03:12:29;;;;;;;0.45;0.40;;;;;;;18.29;83.40;99472.57;1673471;84;21058;-70
2022/07/11 03:14:55;;;;;;;;;;;;;;;18.34;82.86;99478.52;1664187;85;21008;-69
2022/07/11 03:17:22;;;;;;;0.72;0.62;;;;;;;18.37;83.01;99479.91;1638182;86;20145;-70
2022/07/11 03:19:49;;;;;;;0.42;0.40;;;;;;;18.34;82.82;99479.06;1640671;86;21160;-69
2022/07/11 03:22:18;;;;;;;0.40;0.35;;;;;;;18.35;83.11;99478.00;1649142;86;21023;-71
2022/07/11 03:24:44;;;;;;;0.72;0.55;;;;;;;18.34;82.95;99478.52;1646486;86;21164;-71
2022/07/11 03:27:11;;;;;;;1.70;0.65;;;;;;;18.34;82.88;99483.11;1675414;84;21019;-73
2022/07/11 03:29:37;;;;;;;4.47;0.82;;;;;;;18.05;83.08;99437.08;1680070;84;21069;-70
2022/07/11 03:32:05;;;;;;;1.05;0.50;;;;;;;18.36;82.85;99477.72;1676368;84;21031;-70
2022/07/11 03:34:31;;;;;;;2.25;0.70;;;;;;;18.37;82.99;99481.25;1677724;83;21012;-71
2022/07/11 03:36:57;;;;;;;;;;;;;;;18.41;82.90;99478.30;1679772;84;21020;-70
2022/07/11 03:39:23;;;;;;;0.82;0.20;;;;;;;18.46;82.82;99479.14;1677470;84;20156;-70
2022/07/11 03:41:49;;;;;;;0.40;0.40;;;;;;;18.43;82.79;99478.30;1688454;84;21147;-69
2022/07/11 03:44:15;;;;;;;;;;;;;;;18.43;82.64;99480.20;1690962;84;21099;-71
2022/07/11 03:46:42;;;;;;;2.75;1.65;;;;;;;18.42;82.56;99483.95;1678709;85;20092;-71
2022/07/11 03:49:08;;;;;;;1.98;1.87;;;;;;;18.37;82.85;99487.45;1679079;84;21628;-72
2022/07/11 03:51:34;;;;;;;4.22;1.75;;;;;;;18.39;82.54;99493.39;1674170;84;21082;-70
2022/07/11 03:54:01;;;;;;;1.05;0.88;;;;;;;18.41;82.04;99489.90;1675969;84;21109;-72
2022/07/11 03:56:27;;;;;;;1.87;0.90;;;;;;;18.43;81.84;99491.80;1672468;84;21054;-72
2022/07/11 03:58:53;;;;;;;1.77;1.17;;;;;;;18.46;80.80;99490.48;1671381;84;21121;-73
2022/07/11 04:01:22;;;;;;;;;;;;;;;18.47;80.18;99498.30;1661072;84;21019;-72
2022/07/11 04:03:48;;;;;;;0.57;0.57;;;;;;;18.46;79.29;99499.38;1655486;84;20126;-72
2022/07/11 04:06:15;;;;;;;0.90;0.70;;;;;;;18.37;79.58;99496.89;1671378;84;21557;-70
2022/07/11 04:08:42;;;;;;;0.42;0.37;;;;;;;18.34;79.63;99494.70;1653054;85;21093;-70
2022/07/11 04:11:10;;;;;;;0.35;0.35;;;;;;;18.35;79.33;99501.73;1670041;84;21069;-71
2022/07/11 04:13:37;;;;;;;2.58;0.60;;;;;;;18.12;79.46;99464.34;1677501;84;21054;-72
2022/07/11 04:16:05;;;;;;;0.70;0.57;;;;;;;18.35;78.09;99494.19;1679448;84;21082;-73
2022/07/11 04:18:31;;;;;;;1.12;0.57;;;;;;;18.34;78.85;99496.59;1679316;84;21004;-75
2022/07/11 04:20:58;;;;;;;;;;;;;;;18.32;78.28;99487.41;1675381;84;21067;-75
2022/07/11 04:23:24;;;;;;;1.60;1.17;;;;;;;18.29;78.25;99493.34;1687755;83;20150;-73
2022/07/11 04:25:51;;;;;;;0.90;0.80;;;;;;;18.26;78.26;99496.55;1688456;83;21280;-72
2022/07/11 04:28:17;;;;;;;1.02;0.95;;;;;;;18.26;78.02;99490.61;1679954;85;21074;-75
2022/07/11 04:30:43;;;;;;;0.80;0.80;;;;;;;18.30;77.85;99492.26;1671170;84;21079;-72
2022/07/11 04:33:09;;;;;;;1.72;1.20;;;;;;;18.39;77.44;99497.98;1686749;83;21101;-74
2022/07/11 04:35:36;;;;;;;0.60;0.50;;;;;;;18.48;76.35;99499.13;1678211;84;21609;-73
2022/07/11 04:38:04;;;;;;;2.50;1.25;;;;;;;18.45;76.02;99496.39;1685897;83;21100;-75
2022/07/11 04:40:30;;;;;;;2.83;1.30;;;;;;;18.44;76.97;99496.65;1678565;84;21149;-73
2022/07/11 04:42:56;;;;;;;1.37;1.17;;;;;;;18.48;76.26;99502.62;1674501;84;21050;-73
2022/07/11 04:45:23;;;;;;;;;;;;;;;18.52;76.48;99504.27;1685150;83;21497;-72
2022/07/11 04:47:50;;;;;;;1.37;0.95;;;;;;;18.52;76.12;99500.22;1689548;83;20170;-73
2022/07/11 04:50:16;;;;;;;;;;;;;;;18.50;76.70;99505.07;1694138;83;21081;-74
2022/07/11 04:52:42;;;;;;;1.45;1.05;;;;;;;18.60;76.33;99497.02;1692496;83;20201;-72
2022/07/11 04:55:09;;;;;;;2.65;2.33;;;;;;;18.63;76.35;99498.40;1696302;83;21077;-73
2022/07/11 04:57:35;;;;;;;1.15;0.93;;;;;;;18.71;76.40;99496.55;1700827;83;21474;-77
2022/07/11 05:00:01;;;;;;;;;;;;;;;18.84;75.61;99492.59;1705518;82;21154;-72
2022/07/11 05:02:28;;;;;;;0.90;0.90;;;;;;;18.93;75.14;99495.58;1681920;83;20141;-73
2022/07/11 05:04:55;;;;;;;0.93;0.72;;;;;;;18.98;75.51;99489.66;1689001;83;22171;-73
2022/07/11 05:07:21;;;;;;;2.37;0.85;;;;;;;19.10;74.50;99477.81;1684529;84;20973;-73
2022/07/11 05:09:48;;;;;;;2.25;1.02;;;;;;;19.32;74.04;99489.77;1687301;83;21034;-72
2022/07/11 05:12:14;;;;;;;;;;;;;;;19.43;73.46;99491.41;1687760;82;21375;-73
2022/07/11 05:17:41;;;;;;;1.57;0.90;;;;;;;19.73;72.75;99485.80;1778296;79;22947;-72
2022/07/11 05:20:09;;;;;;;3.87;1.05;;;;;;;19.81;71.21;99487.96;1734684;80;21539;-70
2022/07/11 05:22:35;;;;;;;1.75;0.95;;;;;;;19.80;71.10;99491.21;1730294;80;21047;-71
2022/07/11 05:25:05;;;;;;;1.47;1.15;;;;;;;19.80;71.66;99495.27;1659661;83;21096;-72
2022/07/11 05:27:31;;;;;;;3.40;1.70;;;;;;;19.81;71.22;99498.23;1676820;83;21042;-73
2022/07/11 05:29:58;;;;;;;2.33;1.00;;;;;;;19.82;71.43;99504.47;1675873;83;21131;-70
2022/07/11 05:32:26;;;;;;;2.22;1.98;;;;;;;19.88;71.07;99504.73;1671060;83;21094;-71
2022/07/11 05:34:54;;;;;;;2.80;1.35;;;;;;;19.97;71.06;99506.37;1692765;80;20973;-72
2022/07/11 05:37:20;;;;;;;2.20;2.00;;;;;;;20.02;69.86;99503.13;1668181;83;21003;-73
2022/07/11 05:39:46;;;;;;;;;;;;;;;20.07;70.47;99508.25;1680996;83;21019;-70
2022/07/11 05:42:14;;;;;;;1.55;1.20;;;;;;;20.13;69.48;99502.55;1677211;83;20700;-73
2022/07/11 05:44:40;;;;;;;3.27;1.95;;;;;;;20.08;69.33;99505.28;1679844;83;21075;-75
2022/07/11 05:47:08;;;;;;;1.90;1.80;;;;;;;20.03;69.68;99507.43;1662263;83;21134;-77
2022/07/11 05:49:35;;;;;;;2.08;1.98;;;;;;;20.09;69.95;99497.97;1672404;83;21606;-81
2022/07/11 05:52:04;;;;;;;3.10;2.67;;;;;;;20.27;69.38;99497.94;1668036;83;21129;-77
2022/07/11 05:54:30;;;;;;;5.20;3.40;;;;;;;20.42;68.23;99505.50;1667191;83;21079;-77
2022/07/11 05:56:57;;;;;;;3.22;3.02;;;;;;;20.61;67.22;99494.92;1675078;83;21587;-71
2022/07/11 05:59:22;;;;;;;;;;;;;;;20.84;67.07;99500.81;1676332;83;20969;-74
2022/07/11 06:01:49;;;;;;;3.17;2.58;;;;;;;21.16;66.28;99499.03;1686394;82;20099;-72
2022/07/11 06:04:15;;;;;;;3.98;2.87;;;;;;;21.37;64.00;99496.21;1711797;83;21089;-72
2022/07/11 06:06:42;;;;;;;7.58;4.40;;;;;;;21.42;63.63;99498.07;1691113;83;21036;-69
2022/07/11 06:09:08;;;;;;;;;;;;;;;21.54;63.77;99496.67;1696002;83;21021;-71
2022/07/11 06:11:36;;;;;;;4.45;3.37;;;;;;;21.74;63.13;99497.08;1683751;83;20126;-75
2022/07/11 06:14:03;;;;;;;6.20;3.98;;;;;;;21.55;62.00;99443.27;1679745;83;21032;-72
2022/07/11 06:16:29;;;;;;;4.62;4.10;;;;;;;22.00;62.80;99490.09;1693849;83;21068;-73
2022/07/11 06:18:57;;;;;;;5.03;3.30;;;;;;;22.21;60.50;99489.36;1686468;83;21067;-72
2022/07/11 06:21:25;;;;;;;6.25;4.12;;;;;;;22.28;60.30;99484.97;1695003;83;21048;-72
2022/07/11 06:23:52;;;;;;;6.40;4.05;;;;;;;22.24;60.12;99486.05;1687043;83;21001;-74
2022/07/11 06:26:18;;;;;;;5.75;3.50;;;;;;;22.29;60.33;99498.26;1682614;83;21064;-76
2022/07/11 06:28:44;;;;;;;4.35;3.30;;;;;;;22.22;60.62;99488.25;1683845;83;21582;-74
2022/07/11 06:31:10;;;;;;;6.58;2.83;;;;;;;21.83;60.44;99448.47;1684487;83;21013;-78
2022/07/11 06:33:37;;;;;;;3.47;2.70;;;;;;;21.91;61.48;99495.31;1680564;83;21048;-75
2022/07/11 06:36:05;;;;;;;6.42;2.72;;;;;;;21.81;62.37;99496.73;1700058;83;21169;-75
2022/07/11 06:38:33;;;;;;;7.10;3.58;;;;;;;21.82;62.28;99490.23;1695812;83;21037;-75
2022/07/11 06:41:02;;;;;;;3.83;3.20;;;;;;;21.85;62.33;99497.81;1686280;83;20977;-85
2022/07/11 06:43:30;;;;;;;5.33;3.95;;;;;;;21.85;61.59;99492.92;1703167;83;21084;-78
2022/07/11 06:45:57;;;;;;;4.10;2.65;;;;;;;22.00;61.86;99494.70;1674572;82;21003;-80
2022/07/11 06:48:23;;;;;;;6.17;2.55;;;;;;;22.16;61.49;99486.13;1673038;84;21027;-80
2022/07/11 06:50:50;;;;;;;2.52;2.27;;;;;;;22.20;60.30;99490.44;1686344;84;21035;-82
2022/07/11 06:53:17;;;;;;;2.70;2.45;;;;;;;22.16;60.76;99488.84;1679524;84;21033;-77
2022/07/11 06:55:43;;;;;;;2.22;1.47;;;;;;;22.22;61.63;99489.61;1681085;84;21038;-78
2022/07/11 06:58:09;;;;;;;2.02;1.80;;;;;;;22.42;60.25;99486.48;1680729;84;20984;-75
2022/07/11 07:00:36;;;;;;;1.52;0.75;;;;;;;22.50;60.17;99484.48;1677538;83;21640;-76
2022/07/11 07:03:02;;;;;;;2.58;1.25;;;;;;;22.43;60.04;99486.72;1650346;84;20996;-71
2022/07/11 07:05:28;;;;;;;1.22;0.62;;;;;;;22.35;60.28;99469.16;1654255;85;21693;-74
2022/07/11 07:07:55;;;;;;;0.80;0.80;;;;;;;22.28;60.70;99477.66;1647222;85;21048;-74
2022/07/11 07:10:21;;;;;;;1.20;0.98;;;;;;;22.17;61.04;99482.89;1654427;85;21580;-77
2022/07/11 07:12:47;;;;;;;0.57;0.57;;;;;;;22.13;61.79;99485.37;1664847;83;21084;-79
2022/07/11 07:15:13;;;;;;;0.93;0.53;;;;;;;22.09;61.34;99484.84;1682711;83;21063;-75
2022/07/11 07:17:39;;;;;;;2.10;0.90;;;;;;;21.95;62.34;99477.38;1673543;83;21092;-82
2022/07/11 07:20:08;;;;;;;4.12;0.70;;;;;;;22.01;63.07;99484.12;1683947;83;21039;-78
2022/07/11 07:22:35;;;;;;;0.75;0.35;;;;;;;22.07;62.03;99474.83;1668166;83;21532;-71
2022/07/11 07:25:01;;;;;;;1.20;0.47;;;;;;;22.05;62.31;99487.32;1677581;83;21040;-73
2022/07/11 07:27:27;;;;;;;0.42;0.40;;;;;;;22.06;62.23;99484.08;1669167;84;21028;-74
2022/07/11 07:29:54;;;;;;;0.57;0.37;;;;;;;22.03;62.33;99481.92;1690513;83;20973;-76
2022/07/11 07:32:20;;;;;;;1.75;0.50;;;;;;;21.92;62.52;99477.93;1678232;83;21505;-76
2022/07/11 07:34:47;;;;;;;0.30;0.30;;;;;;;21.87;63.05;99467.67;1685258;83;21025;-75
2022/07/11 07:37:14;;;;;;;0.90;0.57;;;;;;;21.86;62.67;99480.44;1677770;83;21076;-71
2022/07/11 07:39:40;;;;;;;0.82;0.50;;;;;;;21.88;62.75;99482.31;1675602;83;21466;-79
2022/07/11 07:42:06;;;;;;;1.05;0.80;;;;;;;21.91;62.57;99493.16;1691226;84;21029;-77
2022/07/11 07:44:33;;;;;;;0.60;0.60;;;;;;;21.95;62.43;99488.23;1687769;83;21577;-78
2022/07/11 07:47:00;;;;;;;2.45;0.90;;;;;;;21.84;62.10;99494.83;1674947;84;22182;-76
2022/07/11 07:49:27;;;;;;;0.60;0.42;;;;;;;21.73;62.18;99500.07;1680745;83;21009;-75
2022/07/11 07:51:54;;;;;;;1.75;0.70;;;;;;;21.70;62.67;99501.98;1679777;83;21448;-77
2022/07/11 07:54:20;;;;;;;1.65;0.60;;;;;;;21.71;62.51;99500.34;1680222;84;20985;-84
2022/07/11 07:56:46;;;;;;;6.22;0.47;;;;;;;21.70;61.66;99505.52;1654753;83;21049;-72
2022/07/11 07:59:12;;;;;;;0.50;0.20;;;;;;;21.72;62.33;99495.75;1654534;85;21024;-80
2022/07/11 08:01:41;;;;;;;1.32;0.70;;;;;;;21.81;61.98;99489.95;1654977;85;21578;-81
2022/07/11 08:04:09;;;;;;;0.35;0.20;;;;;;;21.86;61.51;99492.64;1653159;85;22317;-78
2022/07/11 08:06:37;;;;;;;1.65;0.45;;;;;;;21.91;61.73;99476.88;1663810;85;21035;-78
2022/07/11 08:09:05;;;;;;;1.50;0.20;;;;;;;21.99;60.70;99474.90;1649292;85;21096;-80
2022/07/11 08:11:34;;;;;;;0.25;0.25;;;;;;;22.06;60.52;99479.45;1668458;85;21027;-78
2022/07/11 08:14:02;;;;;;;1.30;0.20;;;;;;;22.15;59.68;99480.98;1659408;85;21033;-84
2022/07/11 08:16:31;;;;;;;1.50;0.47;;;;;;;22.20;59.33;99483.66;1668853;85;21065;-85
2022/07/11 08:19:01;;;;;;;2.95;0.78;;;;;;;22.25;58.75;99470.59;1639579;85;21077;-80
2022/07/11 08:21:28;;;;;;;1.60;1.50;;;;;;;22.33;58.47;99487.64;1645768;85;21018;-82
2022/07/11 08:23:56;;;;;;;1.35;0.50;;;;;;;22.47;58.88;99499.97;1651925;84;20995;-79
2022/07/11 08:26:22;;;;;;;1.45;0.40;;;;;;;22.52;58.39;99488.52;1652359;84;21271;-80
2022/07/11 08:28:51;;;;;;;5.33;0.42;;;;;;;22.52;57.94;99487.70;1659394;84;21506;-79
2022/07/11 08:31:18;;;;;;;1.55;0.53;;;;;;;22.52;57.93;99483.08;1659177;84;21090;-79
2022/07/11 08:33:45;;;;;;;0.93;0.40;;;;;;;22.56;58.07;99469.73;1653199;84;21042;-78
2022/07/11 08:36:12;;;;;;;0.50;0.40;;;;;;;22.64;58.15;99483.23;1659046;85;21026;-82
2022/07/11 08:38:39;;;;;;;3.02;0.50;;;;;;;22.63;57.89;99476.99;1660405;84;21007;-83
2022/07/11 08:41:05;;;;;;;0.85;0.30;;;;;;;22.64;57.42;99487.30;1658646;84;20963;-85
2022/07/11 08:43:32;;;;;;;2.70;0.30;;;;;;;22.69;57.23;99492.13;1666565;84;21040;-74
2022/07/11 08:46:01;;;;;;;2.15;0.33;;;;;;;22.67;56.56;99482.10;1662746;84;20999;-80
2022/07/11 08:48:28;;;;;;;1.37;0.45;;;;;;;22.64;56.66;99498.99;1663664;85;21098;-85
2022/07/11 08:50:55;;;;;;;1.40;0.53;;;;;;;22.63;57.08;99490.57;1657798;84;21073;-76
2022/07/11 08:53:21;;;;;;;2.40;0.65;;;;;;;22.65;56.65;99496.52;1671581;85;21028;-79
2022/07/11 08:55:48;;;;;;;0.62;0.20;;;;;;;22.60;56.43;99507.44;1665476;84;21606;-82
2022/07/11 08:58:15;;;;;;;0.30;0.30;;;;;;;22.45;56.22;99499.45;1668463;85;21539;-82
2022/07/11 09:00:43;;;;;;;0.62;0.40;;;;;;;22.31;56.61;99497.42;1664017;84;21069;-79
2022/07/11 09:03:15;;;;;;;2.77;2.47;;;;;;;22.29;57.50;99498.26;1681760;84;21503;-81
2022/07/11 09:05:44;;;;;;;3.65;0.47;;;;;;;22.42;57.71;99504.13;1679569;84;21145;-83
2022/07/11 09:08:11;;;;;;;1.15;0.47;;;;;;;22.56;56.79;99494.17;1673524;84;21315;-81
2022/07/11 09:10:40;;;;;;;0.55;0.20;;;;;;;22.69;56.54;99499.47;1677511;84;20987;-83
2022/07/11 09:13:10;;;;;;;0.65;0.20;;;;;;;22.77;55.96;99499.38;1652062;84;20985;-79
2022/07/11 09:15:47;;;;;;;0.82;0.23;;;;;;;22.77;55.00;99495.30;1654494;84;21049;-77
2022/07/11 09:18:41;;;;;;;0.65;0.30;;;;;;;22.67;54.68;99501.11;1660477;84;21061;-83
2022/07/11 09:26:48;;;;;;;0.40;0.20;;;;;;;22.33;54.59;99495.23;1629373;86;21807;-79
2022/07/11 09:29:20;;;;;;;1.87;0.98;;;;;;;22.33;55.51;99483.02;1684280;84;21035;-83
2022/07/11 09:31:48;;;;;;;0.78;0.37;;;;;;;22.41;55.52;99487.56;1637415;86;21109;-79
2022/07/11 09:34:18;;;;;;;1.30;0.72;;;;;;;22.49;55.29;99495.89;1627933;87;21518;-79
2022/07/11 09:36:51;;;;;;;1.10;0.65;;;;;;;22.54;55.32;99492.30;1637604;86;21181;-77
2022/07/11 09:39:21;;;;;;;2.35;0.33;;;;;;;22.61;55.42;99494.12;1661582;85;21507;-80
2022/07/11 09:41:50;;;;;;;1.00;0.20;;;;;;;22.69;55.26;99483.98;1692000;83;21095;-77
2022/07/11 09:44:20;;;;;;;3.33;0.30;;;;;;;22.80;54.86;99483.88;1704005;83;21030;-76
2022/07/11 09:46:49;;;;;;;1.87;0.40;;;;;;;22.87;54.43;99480.25;1697582;83;21082;-75
2022/07/11 09:49:37;;;;;;;1.42;0.20;;;;;;;22.95;54.41;99482.31;1695711;83;21522;-79
2022/07/11 09:52:11;;;;;;;0.53;0.40;;;;;;;23.03;53.25;99466.73;1689684;83;21510;-77
2022/07/11 09:54:57;;;;;;;0.40;0.37;;;;;;;23.09;52.59;99454.72;1699118;83;21094;-77
2022/07/11 09:57:33;;;;;;;3.42;0.10;;;;;;;23.20;51.45;99458.64;1696911;83;21106;-83
2022/07/11 10:00:02;;;;;;;1.90;0.20;;;;;;;23.26;50.84;99469.69;1690879;82;21078;-83
2022/07/11 10:02:31;;;;;;;0.70;0.20;;;;;;;23.22;51.13;99470.83;1678163;84;21010;-81
2022/07/11 10:04:59;;;;;;;1.57;0.42;;;;;;;23.22;51.38;99465.39;1704215;83;21222;-81
2022/07/11 10:07:27;;;;;;;0.88;0.72;;;;;;;23.23;50.70;99464.86;1693271;83;21070;-82
2022/07/11 10:09:55;;;;;;;0.68;0.23;;;;;;;23.27;50.79;99461.80;1694021;83;21098;-75
2022/07/11 10:12:22;;;;;;;0.57;0.15;;;;;;;23.32;50.59;99456.30;1673942;84;21087;-82
2022/07/11 10:14:50;;;;;;;1.07;0.20;;;;;;;23.31;50.09;99460.91;1701960;83;21018;-80
2022/07/11 10:17:29;;;;;;;1.80;0.78;;;;;;;23.26;50.11;99454.73;1690452;83;21118;-78
2022/07/11 10:20:32;;;;;;;0.42;0.20;;;;;;;23.28;51.04;99451.17;1696172;83;21511;-80
2022/07/11 10:23:28;;;;;;;1.70;0.30;;;;;;;23.33;50.28;99448.38;1694549;83;21067;-77
2022/07/11 10:26:32;;;;;;;0.50;0.10;;;;;;;23.37;49.59;99442.61;1689708;83;21087;-79
2022/07/11 10:29:16;;;;;;;3.20;0.60;;;;;;;23.43;49.63;99448.25;1641990;85;21059;-78
2022/07/11 10:31:42;;;;;;;1.75;1.52;;;;;;;23.43;49.61;99452.33;1643576;85;21495;-80
2022/07/11 10:34:16;;;;;;;1.10;0.15;;;;;;;23.40;49.75;99459.70;1674076;83;21022;-82
2022/07/11 10:36:43;;;;;;;1.72;0.13;;;;;;;23.41;49.55;99454.50;1690268;83;21090;-75
2022/07/11 10:39:24;;;;;;;2.98;0.20;;;;;;;23.41;49.30;99457.23;1699084;83;21035;-78
2022/07/11 10:41:54;;;;;;;0.37;0.10;;;;;;;23.41;49.10;99450.42;1694934;83;21158;-76
2022/07/11 10:44:21;;;;;;;4.33;0.20;;;;;;;23.40;48.99;99443.39;1695122;82;21019;-79
2022/07/11 10:46:50;;;;;;;1.07;0.10;;;;;;;23.47;49.20;99447.08;1691442;83;21316;-73
2022/07/11 10:49:27;;;;;;;0.40;0.10;;;;;;;23.41;48.29;99427.88;1696019;83;21688;-81
2022/07/11 10:52:04;;;;;;;0.42;0.20;;;;;;;23.63;47.71;99447.09;1692272;83;21060;-80
2022/07/11 10:54:55;;;;;;;2.47;0.42;;;;;;;23.67;47.68;99444.59;1696859;83;21135;-77
2022/07/11 10:57:45;;;;;;;0.33;0.17;;;;;;;23.67;47.44;99455.48;1696120;82;21146;-73
2022/07/11 11:00:16;;;;;;;0.40;0.10;;;;;;;23.63;47.37;99446.30;1641780;85;21594;-71
2022/07/11 11:03:04;;;;;;;4.10;2.20;;;;;;;23.57;47.37;99457.02;1690735;83;21054;-70
2022/07/11 11:05:49;;;;;;;7.75;2.80;;;;;;;23.52;48.69;99454.61;1687805;82;21057;-79
2022/07/11 11:08:43;;;;;;;6.70;2.70;;;;;;;23.43;49.95;99466.45;1687376;83;21099;-81
2022/07/11 11:11:35;;;;;;;6.33;2.27;;;;;;;23.24;50.94;99462.38;1690612;83;21526;-77
2022/07/11 11:14:19;;;;;;;2.60;2.08;;;;;;;23.05;51.98;99474.61;1691415;83;21534;-79
2022/07/11 11:16:47;;;;;;;2.58;1.55;;;;;;;22.90;52.16;99479.09;1695191;83;21079;-78
2022/07/11 11:19:50;;;;;;;6.42;2.72;;;;;;;22.85;52.67;99482.42;1687549;83;21156;-75
2022/07/11 11:22:19;;;;;;;1.90;1.30;;;;;;;22.81;52.89;99472.72;1689057;83;21295;-77
2022/07/11 11:24:50;;;;;;;12.18;1.70;;;;;;;22.69;53.31;99471.75;1693934;83;21968;-78
2022/07/11 11:27:22;;;;;;;1.50;1.32;;;;;;;22.64;53.28;99469.64;1692574;83;21554;-80
2022/07/11 11:29:53;;;;;;;2.20;1.20;;;;;;;22.60;53.44;99473.48;1694889;83;21054;-79
2022/07/11 11:32:22;;;;;;;2.47;1.77;;;;;;;22.57;53.79;99484.95;1688465;83;21566;-83
2022/07/11 11:34:49;;;;;;;4.67;1.45;;;;;;;22.52;53.51;99484.44;1663575;83;21050;-77
2022/07/11 11:37:17;;;;;;;2.87;1.60;;;;;;;22.49;54.37;99483.67;1663608;84;21081;-79
2022/07/11 11:39:44;;;;;;;4.37;1.45;;;;;;;22.48;54.73;99486.12;1656383;84;21090;-79
2022/07/11 11:42:16;;;;;;;1.90;1.22;;;;;;;22.45;54.54;99495.38;1666037;84;21038;-80
2022/07/11 11:44:53;;;;;;;2.90;1.77;;;;;;;22.40;55.13;99495.45;1663819;83;21152;-80
2022/07/11 11:47:20;;;;;;;7.22;1.55;;;;;;;22.34;54.95;99496.86;1659348;84;20983;-80
2022/07/11 11:49:48;;;;;;;3.17;0.80;;;;;;;22.00;56.22;99453.47;1657422;84;21606;-79
2022/07/11 11:52:16;;;;;;;2.75;0.78;;;;;;;22.24;57.10;99495.55;1659700;84;21034;-76
2022/07/11 11:54:42;;;;;;;1.17;0.70;;;;;;;22.07;58.33;99500.05;1660744;84;21032;-79